Time;durP1;ratioP1;P1;durP2;ratioP2;P2;SDS_P1;SDS_P2;PMS_P1;PMS_P2;Temp;Humidity;BMP_temperature;BMP_pressure;BME280_temperature;BME280_humidity;BME280_pressure;Samples;Min_cycle;Max_cycle;Signal;HPM_P1;HPM_P2
2022/04/16 00:00:47;;;;;;;0.13;0.13;;;;;;;;;;6151658;23;20021;-56
2022/04/16 00:03:12;;;;;;;0.00;0.00;;;;;;;;;;6151089;23;20396;-53
2022/04/16 00:05:38;;;;;;;0.40;0.40;;;;;;;;;;6151903;23;20002;-54
2022/04/16 00:08:09;;;;;;;0.00;0.00;;;;;;;;;;6151930;23;20352;-53
2022/04/16 00:10:35;;;;;;;0.10;0.10;;;;;;;;;;6151584;23;20071;-51
2022/04/16 00:13:00;;;;;;;0.03;0.03;;;;;;;;;;6151996;23;20113;-55
2022/04/16 00:15:26;;;;;;;0.00;0.00;;;;;;;;;;6150235;23;20001;-51
2022/04/16 00:17:52;;;;;;;0.65;0.65;;;;;;;;;;6151841;23;20756;-53
2022/04/16 00:20:17;;;;;;;0.80;0.63;;;;;;;;;;6150406;23;20001;-51
2022/04/16 00:22:42;;;;;;;0.00;0.00;;;;;;;;;;6151610;23;20427;-57
2022/04/16 00:25:08;;;;;;;0.03;0.03;;;;;;;;;;6151202;23;20021;-58
2022/04/16 00:27:34;;;;;;;0.00;0.00;;;;;;;;;;6151488;23;20009;-58
2022/04/16 00:29:59;;;;;;;0.70;0.68;;;;;;;;;;6151145;23;20005;-57
2022/04/16 00:32:24;;;;;;;0.52;0.17;;;;;;;;;;6151182;23;20008;-56
2022/04/16 00:34:50;;;;;;;0.00;0.00;;;;;;;;;;6151180;23;20037;-54
2022/04/16 00:37:15;;;;;;;0.00;0.00;;;;;;;;;;6151097;23;20013;-56
2022/04/16 00:39:41;;;;;;;0.20;0.08;;;;;;;;;;6151732;23;20001;-55
2022/04/16 00:42:06;;;;;;;0.43;0.43;;;;;;;;;;6151614;23;20013;-54
2022/04/16 00:44:31;;;;;;;0.40;0.40;;;;;;;;;;6150604;23;19997;-55
2022/04/16 00:46:57;;;;;;;1.45;0.60;;;;;;;;;;6151162;23;20008;-57
2022/04/16 00:49:22;;;;;;;0.00;0.00;;;;;;;;;;6150232;23;20002;-55
2022/04/16 00:51:48;;;;;;;0.93;0.77;;;;;;;;;;6150873;23;20371;-56
2022/04/16 00:54:13;;;;;;;0.00;0.00;;;;;;;;;;6151227;23;20001;-53
2022/04/16 00:56:39;;;;;;;0.20;0.20;;;;;;;;;;6151436;23;20327;-54
2022/04/16 00:59:04;;;;;;;0.20;0.20;;;;;;;;;;6151235;23;19998;-56
2022/04/16 01:01:30;;;;;;;0.80;0.80;;;;;;;;;;6150580;23;20021;-57
2022/04/16 01:03:55;;;;;;;0.20;0.20;;;;;;;;;;6151227;23;20072;-53
2022/04/16 01:06:20;;;;;;;0.00;0.00;;;;;;;;;;6124596;23;20009;-57
2022/04/16 01:08:45;;;;;;;0.00;0.00;;;;;;;;;;6151043;23;19997;-55
2022/04/16 01:11:11;;;;;;;0.52;0.52;;;;;;;;;;6149931;23;19998;-56
2022/04/16 01:13:37;;;;;;;0.10;0.10;;;;;;;;;;6151275;23;20064;-56
2022/04/16 01:16:04;;;;;;;0.00;0.00;;;;;;;;;;6151689;23;20339;-55
2022/04/16 01:18:29;;;;;;;0.10;0.10;;;;;;;;;;6151418;23;20523;-57
2022/04/16 01:20:55;;;;;;;0.00;0.00;;;;;;;;;;6151272;23;20029;-57
2022/04/16 01:23:20;;;;;;;0.00;0.00;;;;;;;;;;6150218;23;20002;-58
2022/04/16 01:25:46;;;;;;;0.20;0.10;;;;;;;;;;6151539;23;20064;-56
2022/04/16 01:28:12;;;;;;;0.57;0.57;;;;;;;;;;6150810;23;20013;-58
2022/04/16 01:30:39;;;;;;;0.20;0.20;;;;;;;;;;6151367;23;20014;-55
2022/04/16 01:33:06;;;;;;;0.28;0.28;;;;;;;;;;6151537;23;20009;-54
2022/04/16 01:35:31;;;;;;;0.10;0.10;;;;;;;;;;6150504;23;20387;-56
2022/04/16 01:37:57;;;;;;;0.20;0.20;;;;;;;;;;6151722;23;20100;-56
2022/04/16 01:40:25;;;;;;;0.75;0.43;;;;;;;;;;6150420;23;20028;-56
2022/04/16 01:42:51;;;;;;;0.00;0.00;;;;;;;;;;6150887;23;20072;-56
2022/04/16 01:45:17;;;;;;;0.45;0.45;;;;;;;;;;6151081;23;20088;-56
2022/04/16 01:47:43;;;;;;;0.00;0.00;;;;;;;;;;6151435;23;20032;-54
2022/04/16 01:50:09;;;;;;;0.00;0.00;;;;;;;;;;6151450;23;20415;-56
2022/04/16 01:52:35;;;;;;;0.00;0.00;;;;;;;;;;6150740;23;20004;-51
2022/04/16 01:55:00;;;;;;;0.00;0.00;;;;;;;;;;6151196;23;20088;-55
2022/04/16 01:57:26;;;;;;;0.00;0.00;;;;;;;;;;6150929;23;20025;-56
2022/04/16 01:59:52;;;;;;;0.00;0.00;;;;;;;;;;6151553;23;20009;-54
2022/04/16 02:02:17;;;;;;;0.00;0.00;;;;;;;;;;6150622;23;20009;-57
2022/04/16 02:04:46;;;;;;;0.00;0.00;;;;;;;;;;6151128;23;20024;-55
2022/04/16 02:07:11;;;;;;;0.00;0.00;;;;;;;;;;6151305;23;20315;-56
2022/04/16 02:09:37;;;;;;;0.10;0.10;;;;;;;;;;6151006;23;20002;-56
2022/04/16 02:12:02;;;;;;;0.00;0.00;;;;;;;;;;6150984;23;20009;-56
2022/04/16 02:14:27;;;;;;;0.00;0.00;;;;;;;;;;6150094;23;20308;-54
2022/04/16 02:16:53;;;;;;;0.00;0.00;;;;;;;;;;6151471;23;20065;-55
2022/04/16 02:19:19;;;;;;;0.85;0.38;;;;;;;;;;6150834;23;20008;-52
2022/04/16 02:21:44;;;;;;;0.00;0.00;;;;;;;;;;6151220;23;20005;-54
2022/04/16 02:24:10;;;;;;;1.92;0.95;;;;;;;;;;6150808;23;19997;-56
2022/04/16 02:26:35;;;;;;;1.20;0.10;;;;;;;;;;6150730;23;20072;-56
2022/04/16 02:29:01;;;;;;;0.00;0.00;;;;;;;;;;6150704;23;20020;-53
2022/04/16 02:31:26;;;;;;;0.55;0.55;;;;;;;;;;6124227;23;20020;-57
2022/04/16 02:33:51;;;;;;;0.00;0.00;;;;;;;;;;6151264;23;20033;-57
2022/04/16 02:36:17;;;;;;;0.00;0.00;;;;;;;;;;6150509;23;20012;-57
2022/04/16 02:38:42;;;;;;;0.00;0.00;;;;;;;;;;6124270;23;20009;-56
2022/04/16 02:41:07;;;;;;;4.07;0.93;;;;;;;;;;6150860;23;20085;-54
2022/04/16 02:43:32;;;;;;;0.60;0.60;;;;;;;;;;6150425;23;20081;-56
2022/04/16 02:48:42;;;;;;;0.13;0.13;;;;;;;;;;6150952;23;20040;-56
2022/04/16 02:51:08;;;;;;;0.25;0.15;;;;;;;;;;6149720;23;20001;-56
2022/04/16 02:53:33;;;;;;;0.15;0.15;;;;;;;;;;6151742;23;20025;-53
2022/04/16 02:55:58;;;;;;;0.20;0.20;;;;;;;;;;6153056;23;19998;-56
2022/04/16 02:58:23;;;;;;;0.88;0.88;;;;;;;;;;6152616;23;20033;-55
2022/04/16 03:00:49;;;;;;;0.30;0.30;;;;;;;;;;6126638;23;20010;-54
2022/04/16 03:03:14;;;;;;;0.00;0.00;;;;;;;;;;6152149;23;20371;-57
2022/04/16 03:05:40;;;;;;;0.00;0.00;;;;;;;;;;6152762;23;20659;-55
2022/04/16 03:08:07;;;;;;;0.63;0.63;;;;;;;;;;6152416;23;20002;-56
2022/04/16 03:10:32;;;;;;;1.48;1.02;;;;;;;;;;6151726;23;20005;-55
2022/04/16 03:12:57;;;;;;;0.63;0.63;;;;;;;;;;6152866;23;19997;-56
2022/04/16 03:18:10;;;;;;;1.88;0.60;;;;;;;;;;6152630;23;20047;-54
2022/04/16 03:20:37;;;;;;;0.00;0.00;;;;;;;;;;6152373;23;20005;-53
2022/04/16 03:23:02;;;;;;;0.30;0.30;;;;;;;;;;6152849;23;20221;-52
2022/04/16 03:25:28;;;;;;;0.45;0.45;;;;;;;;;;6151915;23;20009;-54
2022/04/16 03:27:53;;;;;;;0.00;0.00;;;;;;;;;;6121362;23;20454;-54
2022/04/16 03:30:18;;;;;;;0.00;0.00;;;;;;;;;;6122751;23;20391;-55
2022/04/16 03:32:45;;;;;;;1.60;1.60;;;;;;;;;;6123035;23;19990;-54
2022/04/16 03:35:10;;;;;;;0.20;0.20;;;;;;;;;;6123093;23;20428;-55
2022/04/16 03:37:36;;;;;;;1.10;1.00;;;;;;;;;;6122377;23;20012;-51
2022/04/16 03:40:03;;;;;;;1.55;1.50;;;;;;;;;;6122484;23;19994;-53
2022/04/16 03:42:28;;;;;;;0.43;0.43;;;;;;;;;;6122584;23;20005;-54
2022/04/16 03:44:53;;;;;;;0.00;0.00;;;;;;;;;;6123242;23;20050;-53
2022/04/16 03:47:18;;;;;;;0.52;0.50;;;;;;;;;;6122527;23;19998;-55
2022/04/16 03:49:43;;;;;;;2.60;0.98;;;;;;;;;;6123055;23;20001;-53
2022/04/16 03:52:09;;;;;;;3.42;2.13;;;;;;;;;;6121471;23;20005;-54
2022/04/16 04:00:11;;;;;;;0.45;0.45;;;;;;;;;;6122903;23;20133;-57
2022/04/16 04:02:38;;;;;;;2.33;2.22;;;;;;;;;;6122037;23;20005;-54
2022/04/16 04:05:04;;;;;;;0.43;0.43;;;;;;;;;;6122069;23;20065;-57
2022/04/16 04:07:29;;;;;;;1.73;0.70;;;;;;;;;;6121902;23;20009;-58
2022/04/16 04:09:55;;;;;;;0.10;0.10;;;;;;;;;;6122498;23;20424;-56
2022/04/16 04:12:20;;;;;;;1.85;1.25;;;;;;;;;;6121898;23;20002;-57
2022/04/16 04:14:45;;;;;;;0.70;0.70;;;;;;;;;;6122660;23;20013;-57
2022/04/16 04:17:11;;;;;;;1.27;1.27;;;;;;;;;;6122543;23;20009;-56
2022/04/16 04:19:37;;;;;;;1.23;0.82;;;;;;;;;;6122252;23;20013;-57
2022/04/16 04:22:03;;;;;;;0.55;0.55;;;;;;;;;;6122502;23;20010;-53
2022/04/16 04:24:28;;;;;;;2.65;1.05;;;;;;;;;;6121857;23;20113;-57
2022/04/16 04:27:00;;;;;;;0.10;0.10;;;;;;;;;;6125492;23;20302;-56
2022/04/16 04:29:26;;;;;;;0.52;0.52;;;;;;;;;;6151677;23;20032;-55
2022/04/16 04:31:52;;;;;;;2.63;2.00;;;;;;;;;;6151931;23;20005;-54
2022/04/16 04:34:17;;;;;;;0.43;0.38;;;;;;;;;;6150963;23;20009;-56
2022/04/16 04:36:42;;;;;;;2.28;2.08;;;;;;;;;;6151838;23;20083;-53
2022/04/16 04:39:07;;;;;;;0.63;0.63;;;;;;;;;;6151813;23;20078;-57
2022/04/16 04:41:33;;;;;;;0.00;0.00;;;;;;;;;;6151526;23;20418;-54
2022/04/16 04:43:58;;;;;;;0.55;0.47;;;;;;;;;;6151764;23;19997;-56
2022/04/16 04:46:23;;;;;;;1.17;0.68;;;;;;;;;;6151463;23;20008;-54
2022/04/16 04:48:48;;;;;;;1.73;1.63;;;;;;;;;;6152146;23;20009;-55
2022/04/16 04:51:13;;;;;;;0.55;0.55;;;;;;;;;;6151802;23;20004;-55
2022/04/16 04:53:39;;;;;;;0.35;0.35;;;;;;;;;;6151220;23;20487;-56
2022/04/16 04:56:04;;;;;;;0.52;0.52;;;;;;;;;;6151725;23;20052;-56
2022/04/16 04:58:30;;;;;;;1.02;0.80;;;;;;;;;;6151332;23;20067;-56
2022/04/16 05:00:55;;;;;;;0.90;0.85;;;;;;;;;;6151658;23;20426;-55
2022/04/16 05:03:20;;;;;;;0.30;0.30;;;;;;;;;;6150687;23;20077;-55
2022/04/16 05:05:46;;;;;;;1.15;1.15;;;;;;;;;;6151782;23;20004;-56
2022/04/16 05:08:11;;;;;;;1.02;1.02;;;;;;;;;;6151564;23;20001;-56
2022/04/16 05:10:36;;;;;;;0.25;0.22;;;;;;;;;;6150803;23;20009;-56
2022/04/16 05:13:01;;;;;;;0.93;0.85;;;;;;;;;;6151611;23;20009;-54
2022/04/16 05:15:27;;;;;;;1.90;1.70;;;;;;;;;;6151051;23;20428;-55
2022/04/16 05:17:52;;;;;;;3.58;2.72;;;;;;;;;;6151178;23;20001;-54
2022/04/16 05:20:17;;;;;;;1.35;0.65;;;;;;;;;;6151481;23;20052;-56
2022/04/16 05:22:42;;;;;;;2.42;2.05;;;;;;;;;;6151053;23;19997;-53
2022/04/16 05:25:08;;;;;;;2.58;2.38;;;;;;;;;;6151320;23;20069;-55
2022/04/16 05:27:34;;;;;;;0.88;0.88;;;;;;;;;;6151099;23;20009;-52
2022/04/16 05:30:06;;;;;;;2.90;2.75;;;;;;;;;;6151513;23;20104;-52
2022/04/16 05:32:33;;;;;;;3.00;2.72;;;;;;;;;;6150541;23;20490;-54
2022/04/16 05:34:58;;;;;;;2.17;1.60;;;;;;;;;;6151703;23;19998;-56
2022/04/16 05:37:23;;;;;;;2.13;1.98;;;;;;;;;;6151124;23;20371;-54
2022/04/16 05:39:49;;;;;;;2.63;2.50;;;;;;;;;;6151279;23;20004;-56
2022/04/16 05:42:14;;;;;;;1.65;1.55;;;;;;;;;;6150016;23;20324;-56
2022/04/16 05:44:39;;;;;;;5.28;2.45;;;;;;;;;;6150312;23;20024;-55
2022/04/16 05:47:04;;;;;;;1.95;1.85;;;;;;;;;;6151162;23;20506;-52
2022/04/16 05:49:30;;;;;;;2.17;2.08;;;;;;;;;;6150329;23;20001;-54
2022/04/16 05:51:55;;;;;;;1.33;1.33;;;;;;;;;;6151084;23;20005;-55
2022/04/16 05:54:20;;;;;;;1.88;1.67;;;;;;;;;;6150180;23;20002;-52
2022/04/16 05:56:46;;;;;;;3.33;3.03;;;;;;;;;;6151030;23;19998;-56
2022/04/16 05:59:11;;;;;;;2.33;2.17;;;;;;;;;;6150505;23;20012;-55
2022/04/16 06:01:36;;;;;;;0.30;0.30;;;;;;;;;;6149878;23;20009;-55
2022/04/16 06:04:01;;;;;;;2.08;1.88;;;;;;;;;;6150997;23;20001;-57
2022/04/16 06:06:26;;;;;;;2.60;1.88;;;;;;;;;;6150138;23;20024;-57
2022/04/16 06:08:52;;;;;;;3.13;2.83;;;;;;;;;;6150899;23;20369;-56
2022/04/16 06:11:18;;;;;;;6.40;2.92;;;;;;;;;;6150598;23;20483;-50
2022/04/16 06:13:44;;;;;;;3.35;1.92;;;;;;;;;;6150100;23;20005;-57
2022/04/16 06:16:09;;;;;;;1.15;1.13;;;;;;;;;;6150742;23;20005;-56
2022/04/16 06:18:35;;;;;;;1.05;1.05;;;;;;;;;;6150368;23;20305;-56
2022/04/16 06:21:00;;;;;;;1.38;1.27;;;;;;;;;;6150544;23;19997;-56
2022/04/16 06:23:25;;;;;;;0.65;0.65;;;;;;;;;;6150378;23;19998;-54
2022/04/16 06:25:51;;;;;;;2.47;1.55;;;;;;;;;;6150086;23;19997;-55
2022/04/16 06:28:16;;;;;;;2.83;2.63;;;;;;;;;;6152098;23;20013;-55
2022/04/16 06:30:41;;;;;;;0.57;0.57;;;;;;;;;;6151890;23;20005;-56
2022/04/16 06:33:06;;;;;;;1.83;1.73;;;;;;;;;;6152908;23;20084;-56
2022/04/16 06:35:31;;;;;;;1.38;1.20;;;;;;;;;;6152173;23;20014;-54
2022/04/16 06:37:57;;;;;;;1.73;1.63;;;;;;;;;;6152387;23;20332;-56
2022/04/16 06:40:22;;;;;;;1.25;1.17;;;;;;;;;;6151513;23;20028;-54
2022/04/16 06:42:48;;;;;;;1.77;1.65;;;;;;;;;;6152817;23;20068;-53
2022/04/16 06:45:13;;;;;;;0.88;0.60;;;;;;;;;;6152486;23;19998;-54
2022/04/16 06:47:39;;;;;;;0.73;0.73;;;;;;;;;;6152372;23;20004;-56
2022/04/16 06:50:04;;;;;;;2.88;2.50;;;;;;;;;;6126479;23;20040;-56
2022/04/16 06:52:30;;;;;;;1.08;1.02;;;;;;;;;;6151836;23;20028;-53
2022/04/16 06:54:56;;;;;;;0.45;0.30;;;;;;;;;;6152054;23;20005;-54
2022/04/16 06:57:21;;;;;;;2.92;2.65;;;;;;;;;;6151943;23;20088;-51
2022/04/16 06:59:46;;;;;;;2.55;1.85;;;;;;;;;;6151586;23;20044;-52
2022/04/16 07:02:11;;;;;;;8.77;3.63;;;;;;;;;;6126089;23;20029;-55
2022/04/16 07:04:37;;;;;;;2.95;2.83;;;;;;;;;;6151965;23;20424;-58
2022/04/16 07:07:03;;;;;;;0.85;0.85;;;;;;;;;;6152212;23;20005;-56
2022/04/16 07:09:28;;;;;;;1.40;1.20;;;;;;;;;;6151152;23;20039;-54
2022/04/16 07:11:53;;;;;;;2.83;2.10;;;;;;;;;;6152191;23;20058;-55
2022/04/16 07:14:19;;;;;;;1.45;1.33;;;;;;;;;;6151757;23;20001;-55
2022/04/16 07:16:44;;;;;;;1.08;1.05;;;;;;;;;;6151733;23;20001;-57
2022/04/16 07:19:09;;;;;;;1.35;1.25;;;;;;;;;;6152264;23;20006;-53
2022/04/16 07:21:35;;;;;;;2.42;2.28;;;;;;;;;;6151750;23;20001;-55
2022/04/16 07:24:00;;;;;;;0.63;0.63;;;;;;;;;;6151952;23;20102;-55
2022/04/16 07:26:25;;;;;;;2.80;0.45;;;;;;;;;;6150849;23;20431;-55
2022/04/16 07:28:51;;;;;;;1.05;1.00;;;;;;;;;;6125154;23;20022;-56
2022/04/16 07:31:16;;;;;;;1.55;1.17;;;;;;;;;;6152087;23;20254;-53
2022/04/16 07:33:41;;;;;;;1.85;1.75;;;;;;;;;;6151552;23;19993;-53
2022/04/16 07:36:06;;;;;;;0.98;0.98;;;;;;;;;;6151882;23;20016;-56
2022/04/16 07:38:32;;;;;;;2.90;1.08;;;;;;;;;;6150689;23;20010;-56
2022/04/16 07:40:57;;;;;;;1.10;1.05;;;;;;;;;;6151617;23;20009;-53
2022/04/16 07:43:22;;;;;;;0.63;0.63;;;;;;;;;;6151851;23;20005;-54
2022/04/16 07:45:47;;;;;;;1.92;1.58;;;;;;;;;;6151494;23;20002;-54
2022/04/16 07:48:13;;;;;;;3.38;1.17;;;;;;;;;;6151863;23;20005;-56
2022/04/16 07:50:38;;;;;;;0.85;0.85;;;;;;;;;;6150626;23;19996;-57
2022/04/16 07:53:04;;;;;;;1.27;1.17;;;;;;;;;;6152157;23;19998;-58
2022/04/16 07:55:31;;;;;;;1.08;1.02;;;;;;;;;;6150425;23;20002;-58
2022/04/16 07:57:59;;;;;;;0.75;0.75;;;;;;;;;;6152123;23;20005;-57
2022/04/16 08:00:25;;;;;;;0.80;0.80;;;;;;;;;;6151171;23;20002;-57
2022/04/16 08:02:50;;;;;;;1.33;0.82;;;;;;;;;;6152065;23;20005;-55
2022/04/16 08:05:15;;;;;;;0.90;0.90;;;;;;;;;;6151838;23;19997;-54
2022/04/16 08:07:40;;;;;;;0.00;0.00;;;;;;;;;;6151200;23;19998;-56
2022/04/16 08:10:06;;;;;;;1.70;1.60;;;;;;;;;;6151471;23;20001;-55
2022/04/16 08:12:31;;;;;;;0.15;0.10;;;;;;;;;;6150999;23;20072;-55
2022/04/16 08:14:56;;;;;;;1.55;0.70;;;;;;;;;;6151857;23;20029;-56
2022/04/16 08:17:22;;;;;;;3.30;1.70;;;;;;;;;;6151764;23;20005;-56
2022/04/16 08:19:47;;;;;;;1.63;1.00;;;;;;;;;;6151087;23;20005;-55
2022/04/16 08:22:17;;;;;;;0.68;0.68;;;;;;;;;;6151485;23;20006;-56
2022/04/16 08:24:53;;;;;;;0.20;0.20;;;;;;;;;;6150393;23;20001;-57
2022/04/16 08:27:19;;;;;;;0.77;0.77;;;;;;;;;;6151292;23;20363;-56
2022/04/16 08:29:44;;;;;;;2.78;1.23;;;;;;;;;;6151078;23;19997;-55
2022/04/16 08:32:09;;;;;;;1.85;1.75;;;;;;;;;;6151616;23;20074;-58
2022/04/16 08:34:34;;;;;;;2.63;0.75;;;;;;;;;;6150084;23;20376;-58
2022/04/16 08:36:59;;;;;;;1.92;1.58;;;;;;;;;;6151493;23;20006;-58
2022/04/16 08:39:25;;;;;;;1.27;1.27;;;;;;;;;;6150852;23;20001;-59
2022/04/16 08:41:50;;;;;;;2.60;1.50;;;;;;;;;;6150648;23;20744;-56
2022/04/16 08:44:19;;;;;;;1.98;1.15;;;;;;;;;;6151261;23;20004;-53
2022/04/16 08:46:44;;;;;;;0.75;0.75;;;;;;;;;;6150842;23;19997;-54
2022/04/16 08:49:09;;;;;;;0.30;0.20;;;;;;;;;;6150754;23;20481;-56
2022/04/16 08:51:35;;;;;;;1.83;1.73;;;;;;;;;;6150626;23;20304;-55
2022/04/16 08:54:00;;;;;;;0.47;0.47;;;;;;;;;;6150434;23;20308;-56
2022/04/16 08:56:25;;;;;;;0.80;0.80;;;;;;;;;;6150082;23;20010;-53
2022/04/16 08:58:52;;;;;;;0.43;0.43;;;;;;;;;;6151252;23;20064;-55
2022/04/16 09:01:17;;;;;;;0.85;0.85;;;;;;;;;;6151122;23;20045;-53
2022/04/16 09:03:42;;;;;;;2.10;2.00;;;;;;;;;;6124428;23;20009;-53
2022/04/16 09:06:07;;;;;;;5.60;1.55;;;;;;;;;;6150761;23;20395;-55
2022/04/16 09:08:34;;;;;;;1.45;1.45;;;;;;;;;;6150471;23;20024;-57
2022/04/16 09:11:06;;;;;;;0.95;0.82;;;;;;;;;;6150858;23;20313;-56
2022/04/16 09:13:31;;;;;;;0.57;0.57;;;;;;;;;;6150586;23;20005;-57
2022/04/16 09:16:03;;;;;;;4.85;0.68;;;;;;;;;;6151337;23;19993;-54
2022/04/16 09:18:28;;;;;;;0.40;0.40;;;;;;;;;;6150217;23;20312;-55
2022/04/16 09:20:53;;;;;;;0.00;0.00;;;;;;;;;;6150828;23;20060;-55
2022/04/16 09:23:22;;;;;;;2.17;1.48;;;;;;;;;;6150282;23;20056;-54
2022/04/16 09:25:48;;;;;;;0.10;0.10;;;;;;;;;;6150099;23;20387;-56
2022/04/16 09:28:17;;;;;;;0.28;0.28;;;;;;;;;;6150869;23;20041;-56
2022/04/16 09:30:43;;;;;;;;;;;;;;;;;;6150916;23;20033;-55
2022/04/16 09:33:08;;;;;;;1.55;1.45;;;;;;;;;;6151646;23;19901;-54
2022/04/16 09:35:35;;;;;;;0.90;0.90;;;;;;;;;;6150826;23;20231;-53
2022/04/16 09:38:01;;;;;;;0.60;0.60;;;;;;;;;;6151333;23;20028;-54
2022/04/16 09:40:27;;;;;;;0.10;0.10;;;;;;;;;;6150581;23;19994;-54
2022/04/16 09:42:56;;;;;;;0.00;0.00;;;;;;;;;;6151004;23;20013;-56
2022/04/16 09:45:22;;;;;;;0.45;0.45;;;;;;;;;;6151398;23;20416;-57
2022/04/16 09:47:48;;;;;;;0.25;0.25;;;;;;;;;;6150308;23;20060;-57
2022/04/16 09:50:14;;;;;;;0.00;0.00;;;;;;;;;;6151225;23;19997;-58
2022/04/16 09:52:39;;;;;;;1.38;1.38;;;;;;;;;;6150140;23;20004;-56
2022/04/16 09:55:05;;;;;;;0.90;0.38;;;;;;;;;;6150991;23;20001;-58
2022/04/16 09:57:34;;;;;;;0.38;0.38;;;;;;;;;;6150779;23;20088;-57
2022/04/16 10:00:01;;;;;;;0.57;0.50;;;;;;;;;;6151468;23;20428;-57
2022/04/16 10:02:27;;;;;;;0.28;0.28;;;;;;;;;;6150358;23;20001;-54
2022/04/16 10:04:52;;;;;;;0.43;0.43;;;;;;;;;;6151051;23;20376;-55
2022/04/16 10:07:18;;;;;;;7.13;1.02;;;;;;;;;;6151214;23;20041;-55
2022/04/16 10:09:45;;;;;;;0.10;0.10;;;;;;;;;;6150283;23;19994;-56
2022/04/16 10:14:43;;;;;;;0.55;0.55;;;;;;;;;;6160623;23;20084;-56
2022/04/16 10:17:14;;;;;;;0.88;0.30;;;;;;;;;;6151207;23;20032;-55
2022/04/16 10:19:40;;;;;;;1.95;1.85;;;;;;;;;;6150443;23;20232;-53
2022/04/16 10:22:05;;;;;;;0.60;0.20;;;;;;;;;;6151119;23;20008;-57
2022/04/16 10:24:31;;;;;;;0.70;0.30;;;;;;;;;;6150718;23;19997;-55
2022/04/16 10:27:03;;;;;;;0.32;0.32;;;;;;;;;;6150564;23;20001;-56
2022/04/16 10:29:33;;;;;;;1.45;1.20;;;;;;;;;;6150752;23;20010;-55
2022/04/16 10:31:58;;;;;;;0.45;0.45;;;;;;;;;;6151140;23;20385;-56
2022/04/16 10:34:30;;;;;;;0.73;0.73;;;;;;;;;;6151035;23;20005;-55
2022/04/16 10:36:55;;;;;;;1.13;0.65;;;;;;;;;;6151177;23;20002;-56
2022/04/16 10:39:25;;;;;;;2.58;1.13;;;;;;;;;;6150845;23;20065;-56
2022/04/16 10:41:55;;;;;;;4.28;2.15;;;;;;;;;;6149486;23;20016;-55
2022/04/16 10:44:20;;;;;;;0.00;0.00;;;;;;;;;;6150439;23;19997;-55
2022/04/16 10:46:46;;;;;;;0.60;0.60;;;;;;;;;;6150592;23;20004;-56
2022/04/16 10:49:12;;;;;;;0.17;0.17;;;;;;;;;;6150365;23;20001;-56
2022/04/16 10:51:37;;;;;;;0.20;0.20;;;;;;;;;;6150308;23;20132;-57
2022/04/16 10:54:09;;;;;;;0.68;0.65;;;;;;;;;;6151029;23;19993;-52
2022/04/16 10:56:39;;;;;;;0.68;0.68;;;;;;;;;;6150037;23;20029;-53
2022/04/16 10:59:04;;;;;;;0.38;0.38;;;;;;;;;;6151035;23;20319;-56
2022/04/16 11:01:30;;;;;;;0.60;0.45;;;;;;;;;;6150250;23;20016;-56
2022/04/16 11:03:55;;;;;;;0.70;0.57;;;;;;;;;;6150744;23;20005;-54
2022/04/16 11:06:31;;;;;;;0.35;0.35;;;;;;;;;;6151015;23;20029;-53
2022/04/16 11:08:57;;;;;;;1.05;1.00;;;;;;;;;;6150546;23;20752;-55
2022/04/16 11:11:23;;;;;;;0.25;0.25;;;;;;;;;;6149890;23;20048;-54
2022/04/16 11:13:48;;;;;;;0.35;0.35;;;;;;;;;;6150109;23;20009;-53
2022/04/16 11:16:20;;;;;;;0.52;0.28;;;;;;;;;;6151857;23;20005;-55
2022/04/16 11:18:47;;;;;;;0.22;0.13;;;;;;;;;;6151032;23;20439;-55
2022/04/16 11:21:14;;;;;;;0.90;0.68;;;;;;;;;;6151609;23;20001;-53
2022/04/16 11:23:40;;;;;;;0.32;0.28;;;;;;;;;;6151015;23;20001;-55
2022/04/16 11:34:23;;;;;;;0.93;0.38;;;;;;;;;;6151392;23;20112;-55
2022/04/16 11:36:49;;;;;;;0.40;0.40;;;;;;;;;;6151426;23;20013;-54
2022/04/16 11:39:18;;;;;;;0.73;0.60;;;;;;;;;;6125287;23;20076;-56
2022/04/16 11:41:47;;;;;;;0.60;0.47;;;;;;;;;;6150389;23;20019;-56
2022/04/16 11:44:12;;;;;;;0.68;0.63;;;;;;;;;;6151942;23;19998;-54
2022/04/16 11:46:41;;;;;;;0.50;0.50;;;;;;;;;;6150481;23;20479;-54
2022/04/16 11:49:06;;;;;;;0.30;0.30;;;;;;;;;;6151335;23;20028;-54
2022/04/16 11:51:34;;;;;;;2.17;0.55;;;;;;;;;;6151480;23;20002;-55
2022/04/16 11:53:59;;;;;;;0.15;0.15;;;;;;;;;;6151046;23;19997;-54
2022/04/16 11:56:26;;;;;;;0.38;0.38;;;;;;;;;;6151117;23;20058;-56
2022/04/16 11:58:52;;;;;;;0.20;0.13;;;;;;;;;;6151536;23;20435;-56
2022/04/16 12:01:21;;;;;;;0.10;0.10;;;;;;;;;;6151694;23;20014;-55
2022/04/16 12:03:46;;;;;;;0.77;0.17;;;;;;;;;;6151637;23;20067;-53
2022/04/16 12:06:12;;;;;;;0.32;0.25;;;;;;;;;;6152075;23;20217;-56
2022/04/16 12:08:37;;;;;;;0.40;0.40;;;;;;;;;;6151656;23;20383;-57
2022/04/16 12:11:03;;;;;;;3.85;0.35;;;;;;;;;;6151996;23;20482;-57
2022/04/16 12:13:36;;;;;;;0.55;0.55;;;;;;;;;;6152274;23;19998;-56
2022/04/16 12:16:05;;;;;;;0.38;0.32;;;;;;;;;;6151868;23;20323;-55
2022/04/16 12:18:34;;;;;;;0.17;0.17;;;;;;;;;;6151509;23;19998;-57
2022/04/16 12:21:05;;;;;;;0.50;0.50;;;;;;;;;;6152233;23;20048;-55
2022/04/16 12:23:30;;;;;;;0.98;0.65;;;;;;;;;;6151774;23;20009;-55
2022/04/16 12:26:03;;;;;;;0.05;0.05;;;;;;;;;;6151349;23;20021;-57
2022/04/16 12:28:31;;;;;;;0.70;0.68;;;;;;;;;;6151783;23;20029;-57
2022/04/16 12:30:56;;;;;;;0.90;0.30;;;;;;;;;;6152115;23;20076;-56
2022/04/16 12:33:25;;;;;;;0.00;0.00;;;;;;;;;;6152053;23;19997;-57
2022/04/16 12:35:55;;;;;;;1.20;0.40;;;;;;;;;;6151595;23;20001;-57
2022/04/16 12:38:20;;;;;;;0.00;0.00;;;;;;;;;;6151715;23;20002;-57
2022/04/16 12:40:46;;;;;;;0.00;0.00;;;;;;;;;;6151186;23;20064;-57
2022/04/16 12:43:11;;;;;;;0.00;0.00;;;;;;;;;;6151892;23;20423;-57
2022/04/16 12:45:36;;;;;;;0.00;0.00;;;;;;;;;;6150911;23;20013;-57
2022/04/16 12:48:02;;;;;;;0.10;0.10;;;;;;;;;;6151662;23;20001;-57
2022/04/16 12:50:28;;;;;;;0.13;0.13;;;;;;;;;;6151728;23;20005;-58
2022/04/16 12:52:53;;;;;;;1.42;1.35;;;;;;;;;;6151161;23;20032;-57
2022/04/16 12:55:19;;;;;;;0.40;0.40;;;;;;;;;;6151507;23;20012;-56
2022/04/16 12:57:47;;;;;;;0.00;0.00;;;;;;;;;;6151155;23;20005;-55
2022/04/16 13:00:14;;;;;;;0.38;0.38;;;;;;;;;;6151616;23;20010;-58
2022/04/16 13:02:44;;;;;;;0.00;0.00;;;;;;;;;;6151106;23;20068;-58
2022/04/16 13:05:09;;;;;;;0.20;0.20;;;;;;;;;;6151544;23;19998;-58
2022/04/16 13:07:35;;;;;;;0.20;0.20;;;;;;;;;;6151034;23;20028;-57
2022/04/16 13:10:01;;;;;;;0.00;0.00;;;;;;;;;;6150630;23;20080;-57
2022/04/16 13:12:26;;;;;;;0.00;0.00;;;;;;;;;;6150380;23;19998;-56
2022/04/16 13:14:51;;;;;;;1.42;0.93;;;;;;;;;;6150589;23;20304;-57
2022/04/16 13:17:16;;;;;;;1.35;1.20;;;;;;;;;;6151548;23;20006;-55
2022/04/16 13:19:41;;;;;;;0.35;0.35;;;;;;;;;;6150362;23;20005;-56
2022/04/16 13:22:08;;;;;;;0.20;0.20;;;;;;;;;;6151183;23;20060;-59
2022/04/16 13:24:35;;;;;;;0.00;0.00;;;;;;;;;;6150396;23;20001;-58
2022/04/16 13:27:00;;;;;;;0.10;0.10;;;;;;;;;;6150397;23;20013;-56
2022/04/16 13:29:26;;;;;;;1.95;0.25;;;;;;;;;;6151206;23;20002;-56
2022/04/16 13:31:52;;;;;;;0.00;0.00;;;;;;;;;;6151073;23;20055;-58
2022/04/16 13:34:17;;;;;;;0.45;0.22;;;;;;;;;;6151625;23;20001;-58
2022/04/16 13:36:42;;;;;;;0.40;0.28;;;;;;;;;;6150376;23;20005;-55
2022/04/16 13:41:37;;;;;;;0.22;0.22;;;;;;;;;;6151457;23;20011;-57
2022/04/16 13:41:52;;;;;;;0.20;0.20;;;;;;;;;;6149739;23;20013;-59
2022/04/16 13:44:18;;;;;;;0.57;0.57;;;;;;;;;;6151318;23;20023;-57
2022/04/16 13:46:45;;;;;;;0.10;0.10;;;;;;;;;;6150911;23;20477;-57
2022/04/16 13:49:10;;;;;;;0.25;0.25;;;;;;;;;;6151132;23;20718;-56
2022/04/16 13:51:36;;;;;;;0.00;0.00;;;;;;;;;;6150678;23;20001;-57
2022/04/16 13:54:01;;;;;;;0.38;0.20;;;;;;;;;;6150894;23;20009;-57
2022/04/16 13:56:27;;;;;;;0.00;0.00;;;;;;;;;;6151291;23;19998;-58
2022/04/16 13:58:52;;;;;;;0.10;0.10;;;;;;;;;;6150569;23;20006;-59
2022/04/16 14:01:19;;;;;;;0.30;0.30;;;;;;;;;;6151345;23;20339;-56
2022/04/16 14:03:49;;;;;;;2.50;0.40;;;;;;;;;;6150799;23;20001;-56
2022/04/16 14:06:14;;;;;;;0.30;0.30;;;;;;;;;;6151305;23;20328;-57
2022/04/16 14:08:40;;;;;;;0.25;0.22;;;;;;;;;;6150654;23;20004;-56
2022/04/16 14:11:05;;;;;;;0.00;0.00;;;;;;;;;;6150456;23;20009;-57
2022/04/16 14:13:32;;;;;;;0.10;0.10;;;;;;;;;;6151068;23;20029;-57
2022/04/16 14:16:02;;;;;;;0.30;0.30;;;;;;;;;;6124338;23;20343;-56
2022/04/16 14:18:27;;;;;;;0.00;0.00;;;;;;;;;;6151312;23;20245;-57
2022/04/16 14:20:53;;;;;;;0.73;0.63;;;;;;;;;;6150582;23;20009;-57
2022/04/16 14:23:18;;;;;;;0.00;0.00;;;;;;;;;;6150928;23;20001;-56
2022/04/16 14:25:43;;;;;;;0.10;0.10;;;;;;;;;;6150166;23;20002;-58
2022/04/16 14:28:09;;;;;;;0.55;0.55;;;;;;;;;;6151227;23;20013;-57
2022/04/16 14:30:36;;;;;;;0.10;0.10;;;;;;;;;;6150526;23;20347;-57
2022/04/16 14:33:01;;;;;;;0.00;0.00;;;;;;;;;;6151077;23;20008;-55
2022/04/16 14:35:26;;;;;;;0.00;0.00;;;;;;;;;;6151110;23;20088;-57
2022/04/16 14:37:52;;;;;;;0.00;0.00;;;;;;;;;;6150708;23;20005;-56
2022/04/16 14:40:17;;;;;;;0.20;0.13;;;;;;;;;;6150780;23;20020;-56
2022/04/16 14:42:43;;;;;;;0.00;0.00;;;;;;;;;;6150281;23;20009;-57
2022/04/16 14:45:09;;;;;;;1.15;0.40;;;;;;;;;;6151004;23;20318;-58
2022/04/16 14:47:34;;;;;;;0.70;0.43;;;;;;;;;;6150852;23;20068;-57
2022/04/16 14:50:01;;;;;;;0.32;0.32;;;;;;;;;;6152785;23;20002;-55
2022/04/16 14:52:26;;;;;;;0.28;0.28;;;;;;;;;;6153355;23;20486;-56
2022/04/16 14:54:52;;;;;;;0.57;0.57;;;;;;;;;;6152057;23;20104;-53
2022/04/16 14:57:17;;;;;;;0.00;0.00;;;;;;;;;;6152775;23;20014;-58